KVNY/VNY METAR and TAF weather

Enter ICAO airport designator
Station Type Date Time Source
KVNY METAR 2020/02/20 17:51 UTC NOAA

KVNY 201751Z 00000KT 10SM CLR 18/04 A3012 RMK AO2 SLP194 T01830044 10183 20083 51011


Station Type Date Time Source
KVNY Decoded METAR 2020/02/20 17:51 UTC NOAA

VAN NUYS AIRPORT, CA, United States (KVNY) 34-13N 118-29W 245M
Feb 20, 2020 - 12:51 PM EST / 2020.02.20 1751 UTC
Wind: Calm:0
Visibility: 10 mile(s):0
Sky conditions: clear
Temperature: 64.9 F (18.3 C)
Dew Point: 39.9 F (4.4 C)
Relative Humidity: 39%
Pressure (altimeter): 30.12 in. Hg (1019 hPa)
Pressure tendency: 0.03 inches (1.1 hPa) higher than three hours ago
ob: KVNY 201751Z 00000KT 10SM CLR 18/04 A3012 RMK AO2 SLP194 T01830044 10183 20083 51011
cycle: 18

Station Type Date Time Source
KVNY TAF 2020/02/20 18:42 UTC NOAA

TAF KVNY 201739Z 2018/2118 VRB03KT P6SM SKC
FM201900 36008KT P6SM SKC
FM210300 VRB03KT P6SM SKC
FM210900 36006KT P6SM SCT250

Example: see airport list